Time;durP1;ratioP1;P1;durP2;ratioP2;P2;SDS_P1;SDS_P2;PMS_P1;PMS_P2;Temp;Humidity;BMP_temperature;BMP_pressure;BME280_temperature;BME280_humidity;BME280_pressure;Samples;Min_cycle;Max_cycle;Signal;HPM_P1;HPM_P2
2023/09/16 00:01:49;;;;;;;7.03;4.63;;;;;;;;;;5033399;28;20419;-68
2023/09/16 00:04:15;;;;;;;4.77;4.37;;;;;;;;;;5033511;28;20420;-68
2023/09/16 00:06:41;;;;;;;4.73;4.53;;;;;;;;;;5033349;28;20967;-68
2023/09/16 00:09:07;;;;;;;12.73;4.90;;;;;;;;;;5033356;28;20473;-68
2023/09/16 00:11:33;;;;;;;8.63;5.00;;;;;;;;;;5033420;28;20513;-68
2023/09/16 00:13:59;;;;;;;8.73;4.30;;;;;;;;;;5033390;28;20900;-68
2023/09/16 00:16:25;;;;;;;4.93;4.73;;;;;;;;;;5033049;28;20407;-68
2023/09/16 00:18:51;;;;;;;6.97;4.70;;;;;;;;;;5032997;28;20475;-68
2023/09/16 00:21:17;;;;;;;6.67;4.73;;;;;;;;;;5033005;28;20411;-68
2023/09/16 00:23:43;;;;;;;5.60;5.17;;;;;;;;;;5033233;28;20419;-68
2023/09/16 00:26:10;;;;;;;4.67;4.50;;;;;;;;;;5033174;28;20427;-69
2023/09/16 00:28:36;;;;;;;5.87;5.37;;;;;;;;;;5033246;28;20452;-68
2023/09/16 00:31:02;;;;;;;5.47;4.93;;;;;;;;;;5032882;28;20412;-68
2023/09/16 00:33:29;;;;;;;4.33;4.03;;;;;;;;;;5033240;28;20420;-68
2023/09/16 00:35:56;;;;;;;4.47;4.37;;;;;;;;;;5033687;28;20465;-68
2023/09/16 00:38:23;;;;;;;4.90;4.50;;;;;;;;;;5033005;28;20463;-68
2023/09/16 00:40:49;;;;;;;4.90;4.63;;;;;;;;;;5034219;28;20612;-68
2023/09/16 00:43:14;;;;;;;4.90;4.70;;;;;;;;;;5036878;28;20422;-68
2023/09/16 00:45:41;;;;;;;5.50;5.00;;;;;;;;;;5036498;28;20427;-68
2023/09/16 00:48:09;;;;;;;4.60;4.40;;;;;;;;;;5036693;28;20447;-68
2023/09/16 00:50:35;;;;;;;5.27;4.90;;;;;;;;;;5036872;28;20815;-68
2023/09/16 00:53:01;;;;;;;5.37;4.97;;;;;;;;;;5036576;28;20457;-68
2023/09/16 00:55:28;;;;;;;4.90;4.70;;;;;;;;;;5036181;28;20468;-68
2023/09/16 00:57:54;;;;;;;6.23;4.30;;;;;;;;;;5036422;28;20418;-68
2023/09/16 01:00:21;;;;;;;3.33;3.13;;;;;;;;;;5037275;28;20423;-68
2023/09/16 01:02:47;;;;;;;3.80;3.70;;;;;;;;;;5036750;28;20759;-68
2023/09/16 01:05:17;;;;;;;5.43;5.17;;;;;;;;;;5036516;28;20433;-68
2023/09/16 01:07:45;;;;;;;5.43;5.03;;;;;;;;;;5036270;28;20408;-68
2023/09/16 01:10:11;;;;;;;5.40;5.20;;;;;;;;;;5036014;28;20974;-68
2023/09/16 01:12:38;;;;;;;6.20;5.83;;;;;;;;;;5036281;28;20423;-68
2023/09/16 01:15:06;;;;;;;5.30;5.00;;;;;;;;;;5036232;28;20470;-68
2023/09/16 01:17:34;;;;;;;5.87;5.37;;;;;;;;;;5036189;28;20415;-68
2023/09/16 01:20:06;;;;;;;10.50;4.30;;;;;;;;;;5035760;28;20477;-68
2023/09/16 01:22:32;;;;;;;5.80;4.20;;;;;;;;;;5035785;28;20780;-68
2023/09/16 01:25:05;;;;;;;4.47;4.30;;;;;;;;;;5036344;28;20513;-68
2023/09/16 01:27:32;;;;;;;6.00;4.70;;;;;;;;;;5036045;28;20441;-68
2023/09/16 01:29:59;;;;;;;4.10;3.90;;;;;;;;;;5036246;28;20412;-68
2023/09/16 01:32:31;;;;;;;4.20;4.10;;;;;;;;;;5035958;28;20501;-68
2023/09/16 01:34:59;;;;;;;4.47;4.30;;;;;;;;;;5035902;28;20911;-68
2023/09/16 01:37:25;;;;;;;4.23;4.03;;;;;;;;;;5035800;28;20419;-68
2023/09/16 01:39:58;;;;;;;3.73;3.63;;;;;;;;;;5035493;28;20481;-68
2023/09/16 01:42:25;;;;;;;3.93;3.83;;;;;;;;;;5035771;28;20759;-68
2023/09/16 01:44:56;;;;;;;3.37;3.27;;;;;;;;;;5035410;28;20917;-68
2023/09/16 01:47:22;;;;;;;6.23;4.00;;;;;;;;;;5035641;28;20446;-68
2023/09/16 01:49:48;;;;;;;4.00;3.90;;;;;;;;;;5035383;28;20412;-68
2023/09/16 01:52:16;;;;;;;4.03;3.77;;;;;;;;;;5035145;28;20569;-68
2023/09/16 01:54:42;;;;;;;4.10;4.00;;;;;;;;;;5035496;28;20416;-68
2023/09/16 01:57:08;;;;;;;4.83;4.63;;;;;;;;;;5035053;28;20470;-68
2023/09/16 01:59:34;;;;;;;4.10;4.00;;;;;;;;;;5035317;28;20500;-67
2023/09/16 02:02:00;;;;;;;3.07;2.97;;;;;;;;;;5035347;28;20423;-68
2023/09/16 02:04:26;;;;;;;3.30;3.10;;;;;;;;;;5035165;28;20892;-68
2023/09/16 02:06:52;;;;;;;2.93;2.73;;;;;;;;;;5034932;28;20537;-68
2023/09/16 02:09:18;;;;;;;6.43;3.40;;;;;;;;;;5034872;28;20458;-68
2023/09/16 02:11:44;;;;;;;3.30;3.13;;;;;;;;;;5034931;28;20412;-68
2023/09/16 02:14:15;;;;;;;4.00;3.80;;;;;;;;;;5034879;28;20434;-68
2023/09/16 02:16:41;;;;;;;4.20;3.80;;;;;;;;;;5034804;28;20408;-68
2023/09/16 02:19:07;;;;;;;4.23;4.13;;;;;;;;;;5034994;28;20536;-68
2023/09/16 02:21:33;;;;;;;4.63;4.53;;;;;;;;;;5034762;28;20463;-68
2023/09/16 02:23:59;;;;;;;4.70;4.17;;;;;;;;;;5034605;28;20878;-68
2023/09/16 02:26:25;;;;;;;5.00;4.50;;;;;;;;;;5034979;28;20432;-68
2023/09/16 02:28:51;;;;;;;4.80;4.40;;;;;;;;;;5034819;28;20447;-68
2023/09/16 02:31:17;;;;;;;4.80;4.50;;;;;;;;;;5034558;28;20424;-68
2023/09/16 02:33:43;;;;;;;4.17;4.07;;;;;;;;;;5034716;28;20419;-68
2023/09/16 02:36:09;;;;;;;3.30;3.30;;;;;;;;;;5034494;28;20465;-68
2023/09/16 02:38:35;;;;;;;3.63;3.37;;;;;;;;;;5034541;28;20467;-68
2023/09/16 02:41:04;;;;;;;7.47;4.63;;;;;;;;;;5034608;28;20450;-68
2023/09/16 02:43:31;;;;;;;4.90;3.90;;;;;;;;;;5034524;28;20431;-68
2023/09/16 02:45:57;;;;;;;5.63;5.33;;;;;;;;;;5034249;28;20999;-68
2023/09/16 02:48:23;;;;;;;9.57;8.67;;;;;;;;;;5034212;28;20908;-68
2023/09/16 02:50:49;;;;;;;6.90;6.27;;;;;;;;;;5034455;28;20459;-68
2023/09/16 02:53:16;;;;;;;10.67;6.43;;;;;;;;;;5034146;28;20518;-68
2023/09/16 02:55:42;;;;;;;11.87;7.43;;;;;;;;;;5034005;28;20498;-67
2023/09/16 02:58:08;;;;;;;6.97;6.30;;;;;;;;;;5034154;28;20790;-68
2023/09/16 03:00:35;;;;;;;6.20;5.63;;;;;;;;;;5034264;28;20530;-68
2023/09/16 03:03:01;;;;;;;6.63;5.70;;;;;;;;;;5033851;28;20435;-68
2023/09/16 03:05:27;;;;;;;5.90;5.60;;;;;;;;;;5033902;28;20927;-68
2023/09/16 03:07:53;;;;;;;5.13;4.93;;;;;;;;;;5033784;28;20509;-68
2023/09/16 03:10:19;;;;;;;6.10;5.70;;;;;;;;;;5033776;28;20473;-68
2023/09/16 03:12:45;;;;;;;5.40;5.07;;;;;;;;;;5033829;28;20415;-68
2023/09/16 03:15:11;;;;;;;5.57;5.07;;;;;;;;;;5034079;28;20965;-68
2023/09/16 03:17:37;;;;;;;6.20;3.77;;;;;;;;;;5033987;28;20493;-68
2023/09/16 03:20:03;;;;;;;5.53;5.17;;;;;;;;;;5033666;28;20970;-68
2023/09/16 03:22:29;;;;;;;6.00;4.40;;;;;;;;;;5033917;28;20422;-68
2023/09/16 03:24:55;;;;;;;5.03;4.83;;;;;;;;;;5033915;28;20798;-69
2023/09/16 03:27:21;;;;;;;4.77;4.27;;;;;;;;;;5033855;28;20185;-68
2023/09/16 03:29:47;;;;;;;5.43;4.73;;;;;;;;;;5033853;28;20847;-68
2023/09/16 03:32:13;;;;;;;4.03;3.80;;;;;;;;;;5033532;28;20967;-68
2023/09/16 03:34:39;;;;;;;6.00;5.50;;;;;;;;;;5032279;28;20427;-68
2023/09/16 03:37:05;;;;;;;9.63;4.63;;;;;;;;;;5033629;28;20187;-68
2023/09/16 03:39:31;;;;;;;3.87;3.63;;;;;;;;;;5033410;28;20475;-67
2023/09/16 03:41:58;;;;;;;5.77;5.23;;;;;;;;;;5033653;28;21017;-68
2023/09/16 03:44:24;;;;;;;4.20;4.10;;;;;;;;;;5032132;28;20459;-68
2023/09/16 03:46:50;;;;;;;8.00;4.10;;;;;;;;;;5033305;28;20454;-68
2023/09/16 03:49:16;;;;;;;4.50;4.30;;;;;;;;;;5033550;28;20419;-68
2023/09/16 03:51:42;;;;;;;6.47;4.80;;;;;;;;;;5033252;28;20485;-68
2023/09/16 03:54:08;;;;;;;5.37;4.03;;;;;;;;;;5033599;28;20506;-68
2023/09/16 03:56:35;;;;;;;4.50;4.40;;;;;;;;;;5033161;28;20822;-68
2023/09/16 03:59:01;;;;;;;4.70;4.33;;;;;;;;;;5033479;28;20477;-68
2023/09/16 04:01:27;;;;;;;5.17;4.87;;;;;;;;;;5033500;28;20419;-68
2023/09/16 04:03:54;;;;;;;5.80;3.90;;;;;;;;;;5033163;28;20426;-68
2023/09/16 04:06:20;;;;;;;7.70;3.63;;;;;;;;;;5033116;28;20971;-68
2023/09/16 04:08:46;;;;;;;4.27;3.97;;;;;;;;;;5033686;28;20416;-68
2023/09/16 04:11:13;;;;;;;4.33;4.03;;;;;;;;;;5033416;28;20419;-68
2023/09/16 04:13:39;;;;;;;3.80;3.70;;;;;;;;;;5033677;28;20430;-68
2023/09/16 04:16:05;;;;;;;4.23;4.03;;;;;;;;;;5035024;28;20419;-68
2023/09/16 04:18:31;;;;;;;6.13;5.77;;;;;;;;;;5037214;28;20470;-68
2023/09/16 04:20:57;;;;;;;4.83;4.43;;;;;;;;;;5037543;28;20423;-68
2023/09/16 04:23:23;;;;;;;4.77;4.37;;;;;;;;;;5037178;28;20446;-68
2023/09/16 04:26:00;;;;;;;5.33;4.93;;;;;;;;;;5036963;28;20423;-68
2023/09/16 04:28:26;;;;;;;9.57;5.53;;;;;;;;;;5037129;28;20403;-68
2023/09/16 04:30:52;;;;;;;5.80;5.40;;;;;;;;;;5035552;28;20449;-68
2023/09/16 04:33:19;;;;;;;7.43;5.60;;;;;;;;;;5036749;28;20411;-68
2023/09/16 04:35:49;;;;;;;7.23;4.63;;;;;;;;;;5036744;28;20430;-68
2023/09/16 04:38:15;;;;;;;6.67;5.80;;;;;;;;;;5036132;28;20449;-68
2023/09/16 04:40:42;;;;;;;6.17;5.67;;;;;;;;;;5036902;28;20470;-68
2023/09/16 04:43:08;;;;;;;7.57;4.73;;;;;;;;;;5036579;28;20411;-68
2023/09/16 04:45:34;;;;;;;6.10;5.80;;;;;;;;;;5036992;28;20519;-68
2023/09/16 04:48:01;;;;;;;5.70;5.27;;;;;;;;;;5036595;28;20423;-68
2023/09/16 04:50:28;;;;;;;4.97;4.67;;;;;;;;;;5036914;28;20424;-68
2023/09/16 04:52:54;;;;;;;6.73;5.43;;;;;;;;;;5036581;28;20975;-68
2023/09/16 04:55:21;;;;;;;6.10;5.80;;;;;;;;;;5036469;28;20435;-68
2023/09/16 04:57:47;;;;;;;6.77;6.20;;;;;;;;;;5036480;28;20412;-68
2023/09/16 05:00:13;;;;;;;6.47;6.00;;;;;;;;;;5036375;28;20482;-68
2023/09/16 05:02:39;;;;;;;5.90;5.60;;;;;;;;;;5036768;28;20430;-68
2023/09/16 05:05:05;;;;;;;7.10;6.60;;;;;;;;;;5036258;28;20812;-68
2023/09/16 05:07:31;;;;;;;5.90;5.40;;;;;;;;;;5036767;28;20423;-68
2023/09/16 05:09:57;;;;;;;5.93;5.50;;;;;;;;;;5036389;28;20453;-68
2023/09/16 05:12:23;;;;;;;5.63;5.40;;;;;;;;;;5036279;28;20415;-68
2023/09/16 05:14:50;;;;;;;4.70;4.50;;;;;;;;;;5036475;28;20424;-68
2023/09/16 05:17:16;;;;;;;4.70;4.50;;;;;;;;;;5036102;28;20970;-68
2023/09/16 05:19:42;;;;;;;5.00;4.60;;;;;;;;;;5035810;28;20510;-68
2023/09/16 05:22:08;;;;;;;4.60;4.30;;;;;;;;;;5035775;28;20419;-68
2023/09/16 05:24:34;;;;;;;8.80;5.70;;;;;;;;;;5034635;28;20439;-68
2023/09/16 05:27:00;;;;;;;4.63;4.37;;;;;;;;;;5035437;28;20476;-68
2023/09/16 05:29:26;;;;;;;4.20;4.03;;;;;;;;;;5036488;28;20427;-68
2023/09/16 05:31:53;;;;;;;3.50;3.30;;;;;;;;;;5036219;28;20411;-68
2023/09/16 05:34:19;;;;;;;4.47;4.07;;;;;;;;;;5035820;28;20423;-68
2023/09/16 05:36:45;;;;;;;4.30;4.10;;;;;;;;;;5035557;28;20439;-68
2023/09/16 05:39:11;;;;;;;6.20;3.60;;;;;;;;;;5035498;28;20466;-68
2023/09/16 05:41:37;;;;;;;4.20;4.00;;;;;;;;;;5035820;28;20760;-69
2023/09/16 05:44:03;;;;;;;6.60;3.20;;;;;;;;;;5035778;28;20423;-69
2023/09/16 05:46:29;;;;;;;3.87;3.77;;;;;;;;;;5035588;28;20415;-68
2023/09/16 05:49:06;;;;;;;5.80;5.30;;;;;;;;;;5035368;28;20927;-69
2023/09/16 05:51:32;;;;;;;11.30;5.27;;;;;;;;;;5035311;28;20383;-69
2023/09/16 05:53:58;;;;;;;5.20;4.63;;;;;;;;;;5035239;28;20477;-69
2023/09/16 05:56:24;;;;;;;3.70;3.53;;;;;;;;;;5035517;28;20463;-70
2023/09/16 05:58:50;;;;;;;4.57;4.23;;;;;;;;;;5035044;28;21026;-68
2023/09/16 06:01:16;;;;;;;6.10;3.63;;;;;;;;;;5035100;28;20407;-70
2023/09/16 06:03:42;;;;;;;4.47;4.27;;;;;;;;;;5035298;28;20420;-68
2023/09/16 06:06:08;;;;;;;3.70;3.60;;;;;;;;;;5035115;28;20438;-68
2023/09/16 06:08:34;;;;;;;5.40;4.47;;;;;;;;;;5035270;28;20423;-68
2023/09/16 06:11:00;;;;;;;3.40;3.30;;;;;;;;;;5034920;28;20899;-70
2023/09/16 06:13:26;;;;;;;4.30;4.07;;;;;;;;;;5034918;28;20422;-70
2023/09/16 06:15:53;;;;;;;3.33;3.07;;;;;;;;;;5034925;28;20495;-72
2023/09/16 06:18:18;;;;;;;7.53;4.50;;;;;;;;;;5035045;28;20423;-73
2023/09/16 06:20:45;;;;;;;4.23;4.07;;;;;;;;;;5034954;28;20483;-69
2023/09/16 06:23:11;;;;;;;5.43;3.80;;;;;;;;;;5034336;28;21010;-68
2023/09/16 06:25:38;;;;;;;5.97;4.10;;;;;;;;;;5034579;28;20476;-68
2023/09/16 06:28:04;;;;;;;5.40;4.53;;;;;;;;;;5034695;28;20443;-68
2023/09/16 06:30:30;;;;;;;4.40;4.30;;;;;;;;;;5034300;28;20408;-69
2023/09/16 06:32:57;;;;;;;4.10;3.80;;;;;;;;;;5034704;28;20470;-68
2023/09/16 06:35:23;;;;;;;3.93;3.73;;;;;;;;;;5034760;28;20435;-68
2023/09/16 06:37:50;;;;;;;4.33;4.03;;;;;;;;;;5033751;28;20767;-68
2023/09/16 06:40:20;;;;;;;4.10;3.83;;;;;;;;;;5035296;28;20474;-67
2023/09/16 06:42:46;;;;;;;4.50;4.20;;;;;;;;;;5035183;28;20739;-69
2023/09/16 06:45:12;;;;;;;3.47;3.20;;;;;;;;;;5034124;28;21057;-69
2023/09/16 06:47:39;;;;;;;3.20;3.10;;;;;;;;;;5034041;28;20413;-68
2023/09/16 06:50:06;;;;;;;3.50;3.30;;;;;;;;;;5034513;28;20423;-68
2023/09/16 06:52:32;;;;;;;3.97;3.87;;;;;;;;;;5034100;28;20411;-70
2023/09/16 06:54:58;;;;;;;3.90;3.70;;;;;;;;;;5034163;28;20442;-69
2023/09/16 06:57:24;;;;;;;4.80;4.50;;;;;;;;;;5033363;28;20478;-68
2023/09/16 06:59:50;;;;;;;4.23;4.03;;;;;;;;;;5032713;28;20561;-69
2023/09/16 07:02:17;;;;;;;4.10;4.00;;;;;;;;;;5034248;28;20411;-69
2023/09/16 07:04:43;;;;;;;3.93;3.73;;;;;;;;;;5034237;28;20427;-70
2023/09/16 07:07:09;;;;;;;6.20;3.87;;;;;;;;;;5034096;28;20476;-68
2023/09/16 07:09:35;;;;;;;4.83;3.90;;;;;;;;;;5034178;28;20506;-68
2023/09/16 07:12:01;;;;;;;4.57;4.17;;;;;;;;;;5033860;28;20980;-68
2023/09/16 07:14:27;;;;;;;6.93;3.97;;;;;;;;;;5033842;28;20883;-68
2023/09/16 07:16:53;;;;;;;6.53;4.17;;;;;;;;;;5033737;28;20927;-70
2023/09/16 07:19:19;;;;;;;4.00;3.80;;;;;;;;;;5033082;28;20473;-68
2023/09/16 07:21:45;;;;;;;3.87;3.77;;;;;;;;;;5033684;28;20285;-68
2023/09/16 07:24:11;;;;;;;3.80;3.70;;;;;;;;;;5033742;28;20432;-68
2023/09/16 07:26:37;;;;;;;7.33;3.83;;;;;;;;;;5033131;28;20414;-68
2023/09/16 07:29:03;;;;;;;4.03;3.83;;;;;;;;;;5033845;28;20481;-68
2023/09/16 07:31:29;;;;;;;4.13;3.83;;;;;;;;;;5033516;28;20459;-68
2023/09/16 07:33:55;;;;;;;3.80;3.70;;;;;;;;;;5033976;28;20435;-68
2023/09/16 07:36:21;;;;;;;3.70;3.53;;;;;;;;;;5033643;28;20434;-68
2023/09/16 07:38:47;;;;;;;4.30;4.00;;;;;;;;;;5033690;28;20459;-68
2023/09/16 07:41:13;;;;;;;7.40;3.37;;;;;;;;;;5033948;28;20926;-68
2023/09/16 07:43:39;;;;;;;4.40;4.10;;;;;;;;;;5033375;28;20420;-69
2023/09/16 07:46:05;;;;;;;4.43;4.23;;;;;;;;;;5033235;28;20419;-68
2023/09/16 07:48:31;;;;;;;6.20;4.43;;;;;;;;;;5033561;28;20430;-68
2023/09/16 07:50:58;;;;;;;5.80;5.30;;;;;;;;;;5033491;28;20519;-68
2023/09/16 07:53:24;;;;;;;4.67;4.40;;;;;;;;;;5033384;28;20601;-68
2023/09/16 07:55:50;;;;;;;5.97;5.53;;;;;;;;;;5033079;28;20495;-68
2023/09/16 07:58:16;;;;;;;4.67;4.03;;;;;;;;;;5033816;28;20947;-68
2023/09/16 08:00:42;;;;;;;5.37;4.23;;;;;;;;;;5033443;28;20835;-68
2023/09/16 08:03:08;;;;;;;4.87;4.10;;;;;;;;;;5033473;28;20423;-68
2023/09/16 08:05:34;;;;;;;4.63;4.30;;;;;;;;;;5034216;28;20431;-68
2023/09/16 08:07:59;;;;;;;5.13;4.93;;;;;;;;;;5032984;28;20420;-68
2023/09/16 08:10:25;;;;;;;4.00;3.80;;;;;;;;;;5033131;28;20181;-68
2023/09/16 08:12:51;;;;;;;5.67;5.27;;;;;;;;;;5033102;28;20415;-68
2023/09/16 08:15:17;;;;;;;4.10;4.00;;;;;;;;;;5033079;28;20416;-68
2023/09/16 08:17:43;;;;;;;3.70;3.60;;;;;;;;;;5033282;28;20419;-68
2023/09/16 08:20:09;;;;;;;5.30;4.90;;;;;;;;;;5033301;28;20995;-68
2023/09/16 08:22:36;;;;;;;5.33;5.10;;;;;;;;;;5033267;28;20426;-68
2023/09/16 08:25:05;;;;;;;5.00;4.80;;;;;;;;;;5030709;28;20826;-68
2023/09/16 08:27:31;;;;;;;5.50;5.23;;;;;;;;;;5031598;28;20184;-68
2023/09/16 08:29:57;;;;;;;5.20;4.70;;;;;;;;;;5033147;28;20424;-68
2023/09/16 08:32:26;;;;;;;6.77;5.80;;;;;;;;;;5032909;28;20446;-68
2023/09/16 08:34:52;;;;;;;5.67;5.40;;;;;;;;;;5033658;28;20482;-68
2023/09/16 08:37:18;;;;;;;5.67;5.30;;;;;;;;;;5033046;28;20423;-69
2023/09/16 08:39:44;;;;;;;6.67;6.23;;;;;;;;;;5033126;28;20501;-69
2023/09/16 08:42:28;;;;;;;6.77;6.27;;;;;;;;;;5033227;28;20552;-67
2023/09/16 08:44:57;;;;;;;5.73;5.30;;;;;;;;;;5032825;28;20794;-67
2023/09/16 08:47:26;;;;;;;6.93;5.23;;;;;;;;;;5031400;28;20561;-67
2023/09/16 08:49:53;;;;;;;5.77;5.37;;;;;;;;;;5033088;28;20427;-67
2023/09/16 08:52:20;;;;;;;9.87;5.07;;;;;;;;;;5033036;28;20506;-68
2023/09/16 08:54:48;;;;;;;5.47;5.10;;;;;;;;;;5033184;28;20780;-67
2023/09/16 08:57:15;;;;;;;5.47;5.07;;;;;;;;;;5032913;28;20601;-67
2023/09/16 08:59:41;;;;;;;10.63;5.73;;;;;;;;;;5032598;28;20482;-67
2023/09/16 09:02:08;;;;;;;5.23;4.83;;;;;;;;;;5034682;28;20415;-67
2023/09/16 09:04:35;;;;;;;5.33;4.83;;;;;;;;;;5036510;28;20423;-68
2023/09/16 09:07:01;;;;;;;33.80;7.77;;;;;;;;;;5036034;28;20810;-69
2023/09/16 09:09:28;;;;;;;16.70;6.20;;;;;;;;;;5036133;28;20423;-67
2023/09/16 09:11:55;;;;;;;5.57;5.10;;;;;;;;;;5036291;28;20422;-68
2023/09/16 09:14:22;;;;;;;4.60;4.50;;;;;;;;;;5036020;28;20426;-67
2023/09/16 09:16:49;;;;;;;4.87;4.57;;;;;;;;;;5036180;28;20418;-68
2023/09/16 09:19:15;;;;;;;6.30;4.80;;;;;;;;;;5035811;28;20514;-67
2023/09/16 09:21:42;;;;;;;9.30;5.43;;;;;;;;;;5035825;28;20423;-68
2023/09/16 09:24:08;;;;;;;5.00;4.70;;;;;;;;;;5035814;28;20838;-67
2023/09/16 09:26:35;;;;;;;5.87;5.40;;;;;;;;;;5035959;28;20416;-69
2023/09/16 09:29:01;;;;;;;12.03;4.40;;;;;;;;;;5035653;28;20514;-69
2023/09/16 09:31:27;;;;;;;5.33;4.30;;;;;;;;;;5035573;28;20926;-69
2023/09/16 09:33:53;;;;;;;5.63;5.43;;;;;;;;;;5035471;28;20454;-68
2023/09/16 09:36:20;;;;;;;6.07;5.50;;;;;;;;;;5035447;28;20434;-68
2023/09/16 09:38:46;;;;;;;3.97;3.77;;;;;;;;;;5035554;28;20474;-69
2023/09/16 09:41:13;;;;;;;4.47;4.17;;;;;;;;;;5035588;28;20888;-70
2023/09/16 09:43:39;;;;;;;3.83;3.63;;;;;;;;;;5035724;28;20417;-68
2023/09/16 09:46:05;;;;;;;4.97;4.67;;;;;;;;;;5035427;28;20426;-68
2023/09/16 09:48:32;;;;;;;4.03;3.83;;;;;;;;;;5035388;28;20416;-68
2023/09/16 09:50:58;;;;;;;4.80;4.40;;;;;;;;;;5035511;28;20415;-68
2023/09/16 09:53:26;;;;;;;3.47;3.37;;;;;;;;;;5035619;28;20439;-69
2023/09/16 09:55:52;;;;;;;3.87;3.70;;;;;;;;;;5035226;28;20470;-68
2023/09/16 09:58:18;;;;;;;3.53;3.23;;;;;;;;;;5035427;28;20450;-68
2023/09/16 10:00:47;;;;;;;10.80;6.70;;;;;;;;;;5035423;28;20757;-68
2023/09/16 10:03:14;;;;;;;4.43;4.13;;;;;;;;;;5035391;28;20415;-68
2023/09/16 10:05:40;;;;;;;4.37;4.17;;;;;;;;;;5035155;28;20423;-68
2023/09/16 10:08:06;;;;;;;17.43;4.40;;;;;;;;;;5035037;28;20423;-68
2023/09/16 10:10:32;;;;;;;5.53;3.47;;;;;;;;;;5034976;28;20431;-68
2023/09/16 10:12:59;;;;;;;5.20;3.93;;;;;;;;;;5034022;28;20423;-67
2023/09/16 10:15:26;;;;;;;4.53;4.23;;;;;;;;;;5034903;28;20672;-69
2023/09/16 10:17:52;;;;;;;5.03;4.73;;;;;;;;;;5035232;28;20455;-69
2023/09/16 10:20:18;;;;;;;4.80;4.60;;;;;;;;;;5035000;28;20479;-70
2023/09/16 10:22:45;;;;;;;5.03;4.50;;;;;;;;;;5034985;28;20767;-69
2023/09/16 10:25:14;;;;;;;3.80;3.70;;;;;;;;;;5034829;28;20439;-69
2023/09/16 10:28:04;;;;;;;4.50;4.20;;;;;;;;;;5035381;28;20425;-69
2023/09/16 10:30:31;;;;;;;4.10;4.00;;;;;;;;;;5034417;28;20412;-69
2023/09/16 10:33:01;;;;;;;4.20;3.67;;;;;;;;;;5034522;28;20418;-69
2023/09/16 10:35:30;;;;;;;4.40;4.20;;;;;;;;;;5034720;28;20414;-69
2023/09/16 10:37:57;;;;;;;4.33;4.13;;;;;;;;;;5034252;28;20927;-71
2023/09/16 10:40:23;;;;;;;4.23;3.90;;;;;;;;;;5034322;28;20838;-73
2023/09/16 10:42:50;;;;;;;4.43;4.00;;;;;;;;;;5034426;28;20944;-69
2023/09/16 10:45:17;;;;;;;4.40;4.10;;;;;;;;;;5034618;28;20443;-69
2023/09/16 10:47:45;;;;;;;4.93;4.53;;;;;;;;;;5034256;28;20412;-69
2023/09/16 10:50:11;;;;;;;5.60;5.40;;;;;;;;;;5034479;28;20476;-69
2023/09/16 10:52:41;;;;;;;6.00;3.83;;;;;;;;;;5034412;28;20423;-69
2023/09/16 10:55:07;;;;;;;5.00;4.60;;;;;;;;;;5034357;28;20419;-68
2023/09/16 10:57:37;;;;;;;5.97;4.57;;;;;;;;;;5033821;28;20475;-69
2023/09/16 11:00:03;;;;;;;3.57;3.23;;;;;;;;;;5033974;28;20858;-69
2023/09/16 11:02:41;;;;;;;4.17;4.07;;;;;;;;;;5033994;28;20427;-70
2023/09/16 11:05:07;;;;;;;4.73;4.53;;;;;;;;;;5034238;28;20406;-69
2023/09/16 11:07:34;;;;;;;4.10;3.80;;;;;;;;;;5034032;28;20481;-69
2023/09/16 11:10:00;;;;;;;3.57;3.47;;;;;;;;;;5033914;28;20449;-69
2023/09/16 11:12:26;;;;;;;4.13;3.83;;;;;;;;;;5034184;28;20423;-72
2023/09/16 11:14:52;;;;;;;6.50;4.43;;;;;;;;;;5033693;28;20450;-69
2023/09/16 11:17:21;;;;;;;5.53;4.00;;;;;;;;;;5033626;28;20422;-69
2023/09/16 11:19:47;;;;;;;4.53;4.10;;;;;;;;;;5033614;28;20486;-69
2023/09/16 11:22:14;;;;;;;4.50;4.40;;;;;;;;;;5033618;28;20423;-69
2023/09/16 11:24:40;;;;;;;4.93;4.57;;;;;;;;;;5033376;28;20407;-70
2023/09/16 11:27:06;;;;;;;5.40;5.20;;;;;;;;;;5033546;28;20800;-69
2023/09/16 11:29:32;;;;;;;4.17;3.97;;;;;;;;;;5033577;28;20411;-69
2023/09/16 11:31:59;;;;;;;3.83;3.73;;;;;;;;;;5033623;28;20423;-69
2023/09/16 11:34:26;;;;;;;5.40;4.00;;;;;;;;;;5033788;28;20410;-68
2023/09/16 11:36:57;;;;;;;5.30;5.10;;;;;;;;;;5033667;28;20450;-69
2023/09/16 11:39:32;;;;;;;3.40;3.30;;;;;;;;;;5033620;28;20484;-69
2023/09/16 11:41:58;;;;;;;4.23;4.13;;;;;;;;;;5033513;28;20403;-69
2023/09/16 11:44:24;;;;;;;3.63;3.47;;;;;;;;;;5033649;28;20572;-69
2023/09/16 11:46:50;;;;;;;4.67;4.27;;;;;;;;;;5033598;28;20434;-71
2023/09/16 11:49:17;;;;;;;4.23;3.87;;;;;;;;;;5033249;28;20422;-69
2023/09/16 11:51:43;;;;;;;4.03;3.93;;;;;;;;;;5033363;28;20494;-69
2023/09/16 11:54:09;;;;;;;3.30;3.23;;;;;;;;;;5033138;28;20899;-69
2023/09/16 11:56:35;;;;;;;3.37;3.17;;;;;;;;;;5032909;28;20869;-69
2023/09/16 11:59:01;;;;;;;5.30;3.57;;;;;;;;;;5033245;28;20981;-68
2023/09/16 12:01:46;;;;;;;3.80;3.60;;;;;;;;;;5033187;28;20856;-69
2023/09/16 12:04:15;;;;;;;4.80;4.37;;;;;;;;;;5033786;28;20439;-70
2023/09/16 12:06:41;;;;;;;3.57;3.47;;;;;;;;;;5032978;28;20427;-70
2023/09/16 12:09:08;;;;;;;3.70;3.53;;;;;;;;;;5033455;28;20415;-70
2023/09/16 12:11:34;;;;;;;3.37;3.20;;;;;;;;;;5033199;28;20411;-69
2023/09/16 12:14:03;;;;;;;3.90;3.80;;;;;;;;;;5032927;28;20905;-68
2023/09/16 12:16:29;;;;;;;3.33;3.23;;;;;;;;;;5032957;28;20415;-69
2023/09/16 12:18:55;;;;;;;3.80;3.70;;;;;;;;;;5033185;28;20459;-68
2023/09/16 12:21:21;;;;;;;4.23;3.87;;;;;;;;;;5033343;28;20459;-69
2023/09/16 12:23:49;;;;;;;4.03;3.93;;;;;;;;;;5033017;28;20439;-70
2023/09/16 12:26:15;;;;;;;3.20;3.10;;;;;;;;;;5033219;28;20431;-69
2023/09/16 12:28:41;;;;;;;2.90;2.70;;;;;;;;;;5033022;28;20415;-73
2023/09/16 12:31:11;;;;;;;4.97;3.10;;;;;;;;;;5032992;28;20431;-70
2023/09/16 12:33:44;;;;;;;4.00;3.90;;;;;;;;;;5048144;28;20415;-70
2023/09/16 12:36:16;;;;;;;3.67;3.57;;;;;;;;;;5033539;28;20777;-72
2023/09/16 12:38:43;;;;;;;3.83;3.63;;;;;;;;;;5036717;28;20461;-69
2023/09/16 12:41:09;;;;;;;3.20;3.10;;;;;;;;;;5036748;28;20531;-69
2023/09/16 12:43:36;;;;;;;3.60;3.50;;;;;;;;;;5036562;28;20751;-69
2023/09/16 12:46:04;;;;;;;4.17;3.97;;;;;;;;;;5036822;28;20424;-69
2023/09/16 12:48:30;;;;;;;4.03;3.93;;;;;;;;;;5036682;28;20446;-69
2023/09/16 12:50:56;;;;;;;4.97;4.20;;;;;;;;;;5036542;28;20520;-69
2023/09/16 12:53:24;;;;;;;3.80;3.50;;;;;;;;;;5036461;28;20411;-69
2023/09/16 12:55:50;;;;;;;3.30;3.10;;;;;;;;;;5036136;28;20475;-69
2023/09/16 12:58:21;;;;;;;3.30;3.13;;;;;;;;;;5036724;28;20503;-68
2023/09/16 13:00:51;;;;;;;4.10;4.00;;;;;;;;;;5036338;28;20435;-69
2023/09/16 13:03:17;;;;;;;4.33;4.13;;;;;;;;;;5036584;28;20423;-68
2023/09/16 13:05:50;;;;;;;5.07;4.70;;;;;;;;;;5036367;28;20423;-69
2023/09/16 13:08:19;;;;;;;12.93;5.27;;;;;;;;;;5036148;28;21021;-68
2023/09/16 13:10:46;;;;;;;4.03;3.67;;;;;;;;;;5036342;28;20994;-68
2023/09/16 13:13:12;;;;;;;9.77;4.23;;;;;;;;;;5036392;28;20416;-68
2023/09/16 13:15:41;;;;;;;8.83;3.50;;;;;;;;;;5036284;28;20847;-68
2023/09/16 13:18:08;;;;;;;4.10;4.00;;;;;;;;;;5036192;28;20460;-68
2023/09/16 13:20:36;;;;;;;5.93;3.70;;;;;;;;;;5035828;28;21056;-68
2023/09/16 13:23:02;;;;;;;4.47;4.17;;;;;;;;;;5036154;28;20430;-68
2023/09/16 13:25:29;;;;;;;6.40;5.80;;;;;;;;;;5035936;28;20450;-68
2023/09/16 13:27:56;;;;;;;4.13;4.03;;;;;;;;;;5035690;28;20411;-68
2023/09/16 13:30:22;;;;;;;3.30;3.20;;;;;;;;;;5036042;28;20426;-68
2023/09/16 13:32:52;;;;;;;6.47;4.30;;;;;;;;;;5035761;28;20764;-68
2023/09/16 13:35:18;;;;;;;4.30;4.20;;;;;;;;;;5035688;28;20438;-68
2023/09/16 13:37:44;;;;;;;3.03;2.93;;;;;;;;;;5035603;28;20423;-68
2023/09/16 13:40:12;;;;;;;3.97;3.87;;;;;;;;;;5035525;28;20483;-68
2023/09/16 13:42:38;;;;;;;13.60;3.70;;;;;;;;;;5035512;28;20487;-68
2023/09/16 13:45:04;;;;;;;3.53;3.33;;;;;;;;;;5035153;28;20410;-68
2023/09/16 13:47:30;;;;;;;3.83;3.50;;;;;;;;;;5035204;28;20767;-68
2023/09/16 13:49:56;;;;;;;3.10;3.00;;;;;;;;;;5035684;28;20477;-68
2023/09/16 13:52:22;;;;;;;3.07;2.97;;;;;;;;;;5035548;28;20892;-69
2023/09/16 13:54:48;;;;;;;3.97;3.67;;;;;;;;;;5035548;28;20510;-68
2023/09/16 13:57:14;;;;;;;3.43;3.33;;;;;;;;;;5035018;28;20947;-68
2023/09/16 13:59:40;;;;;;;3.77;3.63;;;;;;;;;;5035122;28;21001;-68
2023/09/16 14:02:06;;;;;;;4.07;3.87;;;;;;;;;;5035127;28;20415;-68
2023/09/16 14:04:32;;;;;;;4.63;4.10;;;;;;;;;;5035387;28;20514;-68
2023/09/16 14:06:58;;;;;;;5.03;2.93;;;;;;;;;;5034969;28;20515;-68
2023/09/16 14:09:24;;;;;;;3.50;3.30;;;;;;;;;;5035048;28;20509;-68
2023/09/16 14:11:50;;;;;;;7.63;3.80;;;;;;;;;;5035155;28;20828;-68
2023/09/16 14:14:16;;;;;;;11.50;4.40;;;;;;;;;;5035020;28;20483;-68
2023/09/16 14:16:42;;;;;;;14.33;4.77;;;;;;;;;;5035369;28;20453;-68
2023/09/16 14:19:08;;;;;;;3.93;3.70;;;;;;;;;;5035049;28;20470;-68
2023/09/16 14:21:34;;;;;;;3.63;3.33;;;;;;;;;;5034739;28;20180;-68
2023/09/16 14:24:00;;;;;;;4.10;3.90;;;;;;;;;;5034760;28;20548;-69
2023/09/16 14:26:26;;;;;;;3.77;3.40;;;;;;;;;;5034893;28;20891;-68
2023/09/16 14:28:52;;;;;;;7.43;4.13;;;;;;;;;;5035006;28;20420;-68
2023/09/16 14:31:18;;;;;;;4.10;3.50;;;;;;;;;;5034767;28;20468;-68
2023/09/16 14:33:44;;;;;;;3.93;3.63;;;;;;;;;;5034591;28;20454;-70
2023/09/16 14:36:10;;;;;;;5.57;4.30;;;;;;;;;;5034725;28;20187;-68
2023/09/16 14:38:38;;;;;;;4.27;3.90;;;;;;;;;;5034487;28;20421;-68
2023/09/16 14:41:05;;;;;;;6.10;4.20;;;;;;;;;;5034288;28;20938;-68